Air Resources Laboratory banner image
Air Resources Laboratory web site National Oceanic and Atmospheric Administration (NOAA)

me metar


K40B 190516Z AUTO 00000KT M14/M16 A3037 RMK AO1 SLP314 T11431157 400071149
 51013=
K8B0 190455Z AUTO 00000KT 10SM CLR M08/M10 A3038 RMK AO2=
KAUG 190453Z AUTO 00000KT 10SM CLR M03/M08 A3049 RMK AO2 SLP329 T10331083
 400331039=
KBGR 190453Z 00000KT 10SM CLR M09/M11 A3047 RMK AO2 SLP323 T10941106 400281122=
KBHB 190456Z AUTO 28004KT 10SM CLR M03/M06 A3051 RMK AO2 SLP334 T10331061
 FZRANO PNO $=
KCAR 190454Z AUTO 21003KT 10SM CLR M09/M13 A3038 RMK AO2 SLP301 T10941128
 400171094=
KFVE 190453Z AUTO 22004KT 10SM CLR M07/M10 A3035 RMK AO2 SLP292 T10721100
 400001094=
KGNR 190456Z AUTO 00000KT M10/M12 A3037 RMK AO1 SLP312 T11001122 410171106=
KHUL 190453Z AUTO 00000KT 10SM CLR M12/M14 A3041 RMK AO2 SLP309 I1000 T11221139
 400111128=
KIWI 190453Z AUTO 00000KT 10SM CLR M07/M08 A3052 RMK AO2 SLP337 T10721078
 400441072=
KIZG 190454Z AUTO 00000KT 10SM CLR M08/M09 A3047 RMK AO2 SLP327 T10831094
 400441083=
KLEW 190456Z AUTO 18003KT 10SM CLR M09/M10 A3049 RMK AO2 SLP341 T10891100
 FZRANO=
KMLT 190453Z AUTO 00000KT 4SM BR CLR M12/M13 A3047 RMK AO2 SLP330 T11171128
 400171133=
KPQI 190456Z AUTO 00000KT 10SM CLR M14/M16 A3041 RMK AO2 SLP346 T11391156
 400171150 FZRANO=
KPWM 190451Z 00000KT 10SM CLR M06/M07 A3051 RMK AO2 SLP331 LAST T10561072
 400441056=
KRKD 190456Z AUTO 00000KT 10SM CLR M05/M07 A3052 RMK AO2 SLP336 T10501072
 400391056 FZRANO=
KSFM 190456Z AUTO 00000KT 10SM CLR M09/M11 A3051 RMK AO2 SLP338 T10941106
 FZRANO=
KWVL 190456Z AUTO 00000KT 10SM CLR M07/M09 A3044 RMK AO2 SLP340 T10671094
 400331072 FZRANO=